Thunder radar more information blitzortung!


Radar de pluja more information rain snow radar


Visita la nostra xarxa de llocs de meteo:

Template documentation
and downloads

And another site



No particular awareness of the weather is required.    There are no Weather-warnings

Pagina Historial Weather Underground text

Diari Resum Setembre 13, 2017 Unitats:  Tant    Imperial   Mètric
« Previous Dia
SegĂźent Dia »
Diari Setmana Mensual Anual Personalitzada
  Maxima: Minima: Media:
Temperatura: 84.6 °F /  29.2 °C 60.4 °F /  15.8 °C 74.7 °F /  23.7 °C
Punt de rosada: 61.5 °F /  16.4 °C 53.4 °F /  11.9 °C 57.2 °F /  14 °C
Humitat: 86 % 36 % 57 %
Wind Speed: 17.3 mph /  27.8 km/h - 6 mph /  9.6 km/h
RĂ fegues de vent: 17.3 mph /  27.8 km/h - -
Vent:- - SW
Pression baro: 30.2 in /  1021.9 hPa 30.1 in /  1017.8 hPa -
Precipitacions: 0 in /  0.0 mm    
Historical Graphs
 
 
Dades de taula per Setembre 13, 2017
Temps Temperatura Punt de rosada Pression baro Vent Wind Speed RĂ fegues de vent Humitat Rainfall Rate (Hourly)
00:00 62.1 °F /  16.7 °C 56.8 °F /  13.8 °C 30.1 in /  1019.9 hPa Calm   1 mph /  1.6 km/h 83 % 0 in /  0.0 mm
00:01 65.3 °F /  18.5 °C 57.2 °F /  14.0 °C 30.1 in /  1019.9 hPa Calm     75 % 0 in /  0.0 mm
00:10 61.9 °F /  16.6 °C 56.7 °F /  13.7 °C 30.1 in /  1019.9 hPa Calm     83 % 0 in /  0.0 mm
00:20 61.3 °F /  16.3 °C 56.1 °F /  13.4 °C 30.1 in /  1019.9 hPa SSE 1 mph /  1.6 km/h 1 mph /  1.6 km/h 83 % 0 in /  0.0 mm
00:30 61.2 °F /  16.2 °C 55.9 °F /  13.3 °C 30.1 in /  1019.9 hPa Calm   1 mph /  1.6 km/h 83 % 0 in /  0.0 mm
00:40 61 °F /  16.1 °C 56.1 °F /  13.4 °C 30.1 in /  1019.9 hPa Calm     84 % 0 in /  0.0 mm
00:50 60.8 °F /  16.0 °C 55.9 °F /  13.3 °C 30.1 in /  1019.9 hPa Calm     84 % 0 in /  0.0 mm
01:00 60.8 °F /  16.0 °C 55.9 °F /  13.3 °C 30.1 in /  1019.9 hPa SW 1 mph /  1.6 km/h 1 mph /  1.6 km/h 84 % 0 in /  0.0 mm
01:10 60.8 °F /  16.0 °C 55.9 °F /  13.3 °C 30.1 in /  1019.9 hPa Calm   1 mph /  1.6 km/h 84 % 0 in /  0.0 mm
01:20 60.8 °F /  16.0 °C 56.3 °F /  13.5 °C 30.1 in /  1019.9 hPa Calm     85 % 0 in /  0.0 mm
01:30 60.8 °F /  16.0 °C 56.3 °F /  13.5 °C 30.1 in /  1019.9 hPa Calm     85 % 0 in /  0.0 mm
01:40 60.4 °F /  15.8 °C 55.9 °F /  13.3 °C 30.1 in /  1019.9 hPa Calm     85 % 0 in /  0.0 mm
01:50 60.4 °F /  15.8 °C 55.9 °F /  13.3 °C 30.1 in /  1019.9 hPa Calm     85 % 0 in /  0.0 mm
02:00 60.6 °F /  15.9 °C 56.1 °F /  13.4 °C 30.1 in /  1019.9 hPa Calm   2 mph /  3.2 km/h 85 % 0 in /  0.0 mm
02:10 60.8 °F /  16.0 °C 56.3 °F /  13.5 °C 30.1 in /  1019.9 hPa Calm   2 mph /  3.2 km/h 85 % 0 in /  0.0 mm
02:20 61 °F /  16.1 °C 56.5 °F /  13.6 °C 30.1 in /  1019.9 hPa WSW 1 mph /  1.6 km/h 2 mph /  3.2 km/h 85 % 0 in /  0.0 mm
02:30 61 °F /  16.1 °C 56.5 °F /  13.6 °C 30.1 in /  1018.8 hPa SW 2 mph /  3.2 km/h 3 mph /  4.8 km/h 85 % 0 in /  0.0 mm
02:40 61 °F /  16.1 °C 56.5 °F /  13.6 °C 30.1 in /  1019.9 hPa SW 2 mph /  3.2 km/h 2 mph /  3.2 km/h 85 % 0 in /  0.0 mm
02:50 61 °F /  16.1 °C 56.5 °F /  13.6 °C 30.1 in /  1019.9 hPa SW 1 mph /  1.6 km/h 3 mph /  4.8 km/h 85 % 0 in /  0.0 mm
03:00 60.8 °F /  16.0 °C 56.7 °F /  13.7 °C 30.1 in /  1019.9 hPa SW 1 mph /  1.6 km/h 2 mph /  3.2 km/h 86 % 0 in /  0.0 mm
03:10 61.2 °F /  16.2 °C 56.8 °F /  13.8 °C 30.1 in /  1019.9 hPa Calm   1 mph /  1.6 km/h 86 % 0 in /  0.0 mm
03:20 61.2 °F /  16.2 °C 56.8 °F /  13.8 °C 30.1 in /  1019.9 hPa Calm   1 mph /  1.6 km/h 86 % 0 in /  0.0 mm
03:30 61.5 °F /  16.4 °C 57.4 °F /  14.1 °C 30.2 in /  1020.9 hPa Calm     86 % 0 in /  0.0 mm
03:40 62.6 °F /  17.0 °C 58.5 °F /  14.7 °C 30.2 in /  1020.9 hPa NNW 1 mph /  1.6 km/h 2 mph /  3.2 km/h 86 % 0 in /  0.0 mm
03:50 63.3 °F /  17.4 °C 58.1 °F /  14.5 °C 30.2 in /  1020.9 hPa NNW 2 mph /  3.2 km/h 3 mph /  4.8 km/h 83 % 0 in /  0.0 mm
04:00 64.6 °F /  18.1 °C 58.6 °F /  14.8 °C 30.2 in /  1020.9 hPa NNW 1 mph /  1.6 km/h 3 mph /  4.8 km/h 81 % 0 in /  0.0 mm
04:10 64.9 °F /  18.3 °C 58.3 °F /  14.6 °C 30.2 in /  1020.9 hPa Calm   2 mph /  3.2 km/h 79 % 0 in /  0.0 mm
04:20 65.1 °F /  18.4 °C 58.1 °F /  14.5 °C 30.2 in /  1020.9 hPa WSW 1 mph /  1.6 km/h 2 mph /  3.2 km/h 78 % 0 in /  0.0 mm
04:30 65.7 °F /  18.7 °C 58.6 °F /  14.8 °C 30.2 in /  1020.9 hPa SW 2 mph /  3.2 km/h 3 mph /  4.8 km/h 78 % 0 in /  0.0 mm
04:40 65.7 °F /  18.7 °C 58.6 °F /  14.8 °C 30.2 in /  1021.9 hPa SW 2 mph /  3.2 km/h 3 mph /  4.8 km/h 78 % 0 in /  0.0 mm
04:50 66 °F /  18.9 °C 59 °F /  15.0 °C 30.2 in /  1021.9 hPa WSW 1 mph /  1.6 km/h 3 mph /  4.8 km/h 78 % 0 in /  0.0 mm
05:00 67.1 °F /  19.5 °C 59.4 °F /  15.2 °C 30.2 in /  1021.9 hPa WSW 1 mph /  1.6 km/h 2 mph /  3.2 km/h 76 % 0 in /  0.0 mm
05:10 68.5 °F /  20.3 °C 59.9 °F /  15.5 °C 30.2 in /  1021.9 hPa West 2 mph /  3.2 km/h 2 mph /  3.2 km/h 74 % 0 in /  0.0 mm
05:20 70.2 °F /  21.2 °C 60.6 °F /  15.9 °C 30.2 in /  1021.9 hPa Calm   3 mph /  4.8 km/h 72 % 0 in /  0.0 mm
10:22 70.5 °F /  21.4 °C 59.9 °F /  15.5 °C 30.2 in /  1021.9 hPa North 2.3 mph /  3.7 km/h 2.3 mph /  3.7 km/h 69 % 0 in /  0.0 mm
10:23 70.7 °F /  21.5 °C 60.1 °F /  15.6 °C 30.2 in /  1021.9 hPa North 1.6 mph /  2.6 km/h 1.6 mph /  2.6 km/h 69 % 0 in /  0.0 mm
10:24 71.1 °F /  21.7 °C 60.4 °F /  15.8 °C 30.2 in /  1021.9 hPa NW 1.2 mph /  1.9 km/h 1.4 mph /  2.3 km/h 69 % 0 in /  0.0 mm
10:29 71.4 °F /  21.9 °C 59.9 °F /  15.5 °C 30.2 in /  1021.9 hPa NNE 2.6 mph /  4.2 km/h 2.6 mph /  4.2 km/h 67 % 0 in /  0.0 mm
10:34 72.1 °F /  22.3 °C 58.8 °F /  14.9 °C 30.2 in /  1021.9 hPa NNE 3.5 mph /  5.6 km/h 3.5 mph /  5.6 km/h 63 % 0 in /  0.0 mm
10:39 72.1 °F /  22.3 °C 58.8 °F /  14.9 °C 30.2 in /  1021.9 hPa WSW 2.4 mph /  3.9 km/h 2.4 mph /  3.9 km/h 63 % 0 in /  0.0 mm
10:44 72.5 °F /  22.5 °C 58.6 °F /  14.8 °C 30.2 in /  1021.9 hPa SW 2.3 mph /  3.7 km/h 2.3 mph /  3.7 km/h 62 % 0 in /  0.0 mm
10:49 73.4 °F /  23.0 °C 58.6 °F /  14.8 °C 30.2 in /  1021.9 hPa NE 2.3 mph /  3.7 km/h 2.3 mph /  3.7 km/h 60 % 0 in /  0.0 mm
10:54 73.9 °F /  23.3 °C 58.3 °F /  14.6 °C 30.2 in /  1021.9 hPa South 3.6 mph /  5.8 km/h 3.6 mph /  5.8 km/h 58 % 0 in /  0.0 mm
10:59 74.3 °F /  23.5 °C 58.6 °F /  14.8 °C 30.2 in /  1021.9 hPa NE 3.5 mph /  5.6 km/h 3.5 mph /  5.6 km/h 58 % 0 in /  0.0 mm
11:04 74.7 °F /  23.7 °C 58.8 °F /  14.9 °C 30.2 in /  1021.9 hPa NNW 1.4 mph /  2.3 km/h 1.4 mph /  2.3 km/h 58 % 0 in /  0.0 mm
11:09 74.7 °F /  23.7 °C 57.4 °F /  14.1 °C 30.2 in /  1021.9 hPa East 4.6 mph /  7.4 km/h 4.6 mph /  7.4 km/h 55 % 0 in /  0.0 mm
11:14 74.8 °F /  23.8 °C 57.6 °F /  14.2 °C 30.2 in /  1021.9 hPa North 4.6 mph /  7.4 km/h 4.6 mph /  7.4 km/h 55 % 0 in /  0.0 mm
11:19 74.8 °F /  23.8 °C 57.6 °F /  14.2 °C 30.2 in /  1021.9 hPa ENE 3.8 mph /  6.1 km/h 3.8 mph /  6.1 km/h 55 % 0 in /  0.0 mm
11:24 74.5 °F /  23.6 °C 56.1 °F /  13.4 °C 30.2 in /  1021.9 hPa ESE 3.8 mph /  6.1 km/h 3.8 mph /  6.1 km/h 53 % 0 in /  0.0 mm
11:29 75 °F /  23.9 °C 56.7 °F /  13.7 °C 30.2 in /  1021.9 hPa WNW 2.3 mph /  3.7 km/h 2.3 mph /  3.7 km/h 53 % 0 in /  0.0 mm
11:34 76.1 °F /  24.5 °C 57.7 °F /  14.3 °C 30.2 in /  1021.9 hPa ESE 3.5 mph /  5.6 km/h 3.5 mph /  5.6 km/h 53 % 0 in /  0.0 mm
11:39 76.5 °F /  24.7 °C 57.6 °F /  14.2 °C 30.2 in /  1021.9 hPa East 2.3 mph /  3.7 km/h 2.4 mph /  3.9 km/h 52 % 0 in /  0.0 mm
11:44 77 °F /  25.0 °C 57.9 °F /  14.4 °C 30.2 in /  1021.9 hPa WSW 4 mph /  6.4 km/h 4 mph /  6.4 km/h 52 % 0 in /  0.0 mm
11:49 77.2 °F /  25.1 °C 57 °F /  13.9 °C 30.2 in /  1021.9 hPa SW 2.3 mph /  3.7 km/h 2.3 mph /  3.7 km/h 50 % 0 in /  0.0 mm
11:54 76.8 °F /  24.9 °C 57.4 °F /  14.1 °C 30.2 in /  1021.9 hPa West 6.9 mph /  11.1 km/h 6.9 mph /  11.1 km/h 51 % 0 in /  0.0 mm
11:59 77.4 °F /  25.2 °C 56.1 °F /  13.4 °C 30.2 in /  1021.9 hPa East 5.9 mph /  9.5 km/h 5.9 mph /  9.5 km/h 48 % 0 in /  0.0 mm
12:04 76.6 °F /  24.8 °C 55.9 °F /  13.3 °C 30.2 in /  1021.9 hPa South 2.3 mph /  3.7 km/h 2.3 mph /  3.7 km/h 49 % 0 in /  0.0 mm
12:09 78.1 °F /  25.6 °C 56.1 °F /  13.4 °C 30.2 in /  1021.9 hPa WSW 2.4 mph /  3.9 km/h 2.4 mph /  3.9 km/h 47 % 0 in /  0.0 mm
12:14 78.3 °F /  25.7 °C 56.5 °F /  13.6 °C 30.2 in /  1021.9 hPa South 3.8 mph /  6.1 km/h 3.8 mph /  6.1 km/h 47 % 0 in /  0.0 mm
12:19 78.4 °F /  25.8 °C 56.5 °F /  13.6 °C 30.2 in /  1021.9 hPa SW 8.1 mph /  13.0 km/h 8.1 mph /  13.0 km/h 47 % 0 in /  0.0 mm
12:24 78.3 °F /  25.7 °C 56.5 °F /  13.6 °C 30.2 in /  1021.9 hPa ENE 2.3 mph /  3.7 km/h 2.3 mph /  3.7 km/h 47 % 0 in /  0.0 mm
12:29 79.5 °F /  26.4 °C 56.8 °F /  13.8 °C 30.2 in /  1021.9 hPa West 2.3 mph /  3.7 km/h 2.3 mph /  3.7 km/h 46 % 0 in /  0.0 mm
12:34 80.2 °F /  26.8 °C 58.3 °F /  14.6 °C 30.2 in /  1021.9 hPa WSW 5.9 mph /  9.5 km/h 5.9 mph /  9.5 km/h 47 % 0 in /  0.0 mm
12:39 80.8 °F /  27.1 °C 57.6 °F /  14.2 °C 30.2 in /  1021.9 hPa WSW 6.9 mph /  11.1 km/h 6.9 mph /  11.1 km/h 45 % 0 in /  0.0 mm
12:44 80.4 °F /  26.9 °C 57 °F /  13.9 °C 30.2 in /  1021.9 hPa SSE 6.9 mph /  11.1 km/h 6.9 mph /  11.1 km/h 45 % 0 in /  0.0 mm
12:49 80.2 °F /  26.8 °C 56.3 °F /  13.5 °C 30.2 in /  1021.9 hPa SSE 8.1 mph /  13.0 km/h 8.1 mph /  13.0 km/h 44 % 0 in /  0.0 mm
12:54 80.2 °F /  26.8 °C 57 °F /  13.9 °C 30.2 in /  1021.9 hPa SW 5.8 mph /  9.3 km/h 5.8 mph /  9.3 km/h 45 % 0 in /  0.0 mm
12:59 81 °F /  27.2 °C 57 °F /  13.9 °C 30.2 in /  1021.9 hPa SW 4.6 mph /  7.4 km/h 4.6 mph /  7.4 km/h 44 % 0 in /  0.0 mm
13:04 80.8 °F /  27.1 °C 56.1 °F /  13.4 °C 30.2 in /  1021.9 hPa West 6.9 mph /  11.1 km/h 6.9 mph /  11.1 km/h 43 % 0 in /  0.0 mm
13:09 81.5 °F /  27.5 °C 56.1 °F /  13.4 °C 30.2 in /  1021.9 hPa SSW 4.6 mph /  7.4 km/h 4.6 mph /  7.4 km/h 42 % 0 in /  0.0 mm
13:14 82.2 °F /  27.9 °C 57.6 °F /  14.2 °C 30.2 in /  1021.9 hPa West 5.8 mph /  9.3 km/h 5.8 mph /  9.3 km/h 43 % 0 in /  0.0 mm
13:19 82.4 °F /  28.0 °C 57.7 °F /  14.3 °C 30.2 in /  1021.9 hPa West 5.8 mph /  9.3 km/h 5.8 mph /  9.3 km/h 43 % 0 in /  0.0 mm
13:24 82.2 °F /  27.9 °C 56.8 °F /  13.8 °C 30.2 in /  1020.9 hPa WSW 3.5 mph /  5.6 km/h 3.5 mph /  5.6 km/h 42 % 0 in /  0.0 mm
13:34 82.9 °F /  28.3 °C 56.8 °F /  13.8 °C 30.2 in /  1020.9 hPa West 2 mph /  3.2 km/h 2 mph /  3.2 km/h 41 % 0 in /  0.0 mm
13:39 83.7 °F /  28.7 °C 56.8 °F /  13.8 °C 30.2 in /  1020.9 hPa WSW 6 mph /  9.7 km/h 6 mph /  9.7 km/h 40 % 0 in /  0.0 mm
13:44 83.5 °F /  28.6 °C 57.4 °F /  14.1 °C 30.2 in /  1020.9 hPa WSW 4 mph /  6.4 km/h 4 mph /  6.4 km/h 41 % 0 in /  0.0 mm
13:49 84.2 °F /  29.0 °C 56.7 °F /  13.7 °C 30.2 in /  1020.9 hPa SSW 3.5 mph /  5.6 km/h 3.5 mph /  5.6 km/h 39 % 0 in /  0.0 mm
13:54 84.2 °F /  29.0 °C 55.8 °F /  13.2 °C 30.2 in /  1020.9 hPa West 5.8 mph /  9.3 km/h 5.8 mph /  9.3 km/h 38 % 0 in /  0.0 mm
13:59 84.6 °F /  29.2 °C 56.1 °F /  13.4 °C 30.2 in /  1020.9 hPa SW 6.9 mph /  11.1 km/h 6.9 mph /  11.1 km/h 38 % 0 in /  0.0 mm
14:04 84.4 °F /  29.1 °C 55.9 °F /  13.3 °C 30.2 in /  1020.9 hPa West 10.4 mph /  16.7 km/h 10.4 mph /  16.7 km/h 38 % 0 in /  0.0 mm
14:09 84 °F /  28.9 °C 55.8 °F /  13.2 °C 30.2 in /  1020.9 hPa SSW 10.4 mph /  16.7 km/h 10.4 mph /  16.7 km/h 38 % 0 in /  0.0 mm
14:14 84.4 °F /  29.1 °C 55.2 °F /  12.9 °C 30.2 in /  1020.9 hPa SW 5.4 mph /  8.7 km/h 5.4 mph /  8.7 km/h 37 % 0 in /  0.0 mm
14:19 83.7 °F /  28.7 °C 55.4 °F /  13.0 °C 30.2 in /  1020.9 hPa SSW 6.9 mph /  11.1 km/h 6.9 mph /  11.1 km/h 38 % 0 in /  0.0 mm
14:24 83.7 °F /  28.7 °C 54.7 °F /  12.6 °C 30.1 in /  1019.9 hPa SW 6.9 mph /  11.1 km/h 6.9 mph /  11.1 km/h 37 % 0 in /  0.0 mm
14:29 84.4 °F /  29.1 °C 55.2 °F /  12.9 °C 30.1 in /  1019.9 hPa SW 9.8 mph /  15.8 km/h 9.8 mph /  15.8 km/h 37 % 0 in /  0.0 mm
14:34 83.8 °F /  28.8 °C 54.9 °F /  12.7 °C 30.1 in /  1019.9 hPa SW 5.8 mph /  9.3 km/h 5.8 mph /  9.3 km/h 37 % 0 in /  0.0 mm
14:39 83.1 °F /  28.4 °C 53.4 °F /  11.9 °C 30.1 in /  1019.9 hPa SW 11.5 mph /  18.5 km/h 11.5 mph /  18.5 km/h 36 % 0 in /  0.0 mm
14:44 83.5 °F /  28.6 °C 53.8 °F /  12.1 °C 30.1 in /  1019.9 hPa South 8.1 mph /  13.0 km/h 8.1 mph /  13.0 km/h 36 % 0 in /  0.0 mm
14:49 83.5 °F /  28.6 °C 54.5 °F /  12.5 °C 30.1 in /  1019.9 hPa WSW 7.4 mph /  11.9 km/h 7.4 mph /  11.9 km/h 37 % 0 in /  0.0 mm
14:54 83.1 °F /  28.4 °C 53.4 °F /  11.9 °C 30.1 in /  1019.9 hPa South 6 mph /  9.7 km/h 6 mph /  9.7 km/h 36 % 0 in /  0.0 mm
14:59 83.3 °F /  28.5 °C 53.6 °F /  12.0 °C 30.1 in /  1019.9 hPa SW 10.4 mph /  16.7 km/h 10.4 mph /  16.7 km/h 36 % 0 in /  0.0 mm
15:04 83.1 °F /  28.4 °C 53.4 °F /  11.9 °C 30.1 in /  1019.9 hPa SW 12.7 mph /  20.4 km/h 12.7 mph /  20.4 km/h 36 % 0 in /  0.0 mm
15:09 83.7 °F /  28.7 °C 54.7 °F /  12.6 °C 30.1 in /  1018.8 hPa WSW 6.4 mph /  10.3 km/h 6.4 mph /  10.3 km/h 37 % 0 in /  0.0 mm
15:14 83.8 °F /  28.8 °C 54.9 °F /  12.7 °C 30.1 in /  1018.8 hPa SSE 3.5 mph /  5.6 km/h 3.5 mph /  5.6 km/h 37 % 0 in /  0.0 mm
15:19 83.5 °F /  28.6 °C 54.5 °F /  12.5 °C 30.1 in /  1018.8 hPa WSW 9.2 mph /  14.8 km/h 9.2 mph /  14.8 km/h 37 % 0 in /  0.0 mm
15:24 83.8 °F /  28.8 °C 54.9 °F /  12.7 °C 30.1 in /  1019.9 hPa South 9.2 mph /  14.8 km/h 9.2 mph /  14.8 km/h 37 % 0 in /  0.0 mm
15:29 83.7 °F /  28.7 °C 54.7 °F /  12.6 °C 30.1 in /  1019.9 hPa SSE 6.9 mph /  11.1 km/h 6.9 mph /  11.1 km/h 37 % 0 in /  0.0 mm
15:34 84 °F /  28.9 °C 54.9 °F /  12.7 °C 30.1 in /  1019.9 hPa SSW 6.9 mph /  11.1 km/h 6.9 mph /  11.1 km/h 37 % 0 in /  0.0 mm
15:39 83.7 °F /  28.7 °C 55.4 °F /  13.0 °C 30.1 in /  1019.9 hPa SW 12.7 mph /  20.4 km/h 12.7 mph /  20.4 km/h 38 % 0 in /  0.0 mm
15:44 83.7 °F /  28.7 °C 55.4 °F /  13.0 °C 30.1 in /  1019.9 hPa SW 13.8 mph /  22.2 km/h 13.8 mph /  22.2 km/h 38 % 0 in /  0.0 mm
15:49 83.5 °F /  28.6 °C 55.2 °F /  12.9 °C 30.1 in /  1019.9 hPa South 9.2 mph /  14.8 km/h 9.2 mph /  14.8 km/h 38 % 0 in /  0.0 mm
15:54 83.1 °F /  28.4 °C 55.6 °F /  13.1 °C 30.1 in /  1019.9 hPa SW 8.1 mph /  13.0 km/h 8.1 mph /  13.0 km/h 39 % 0 in /  0.0 mm
15:59 83.3 °F /  28.5 °C 55 °F /  12.8 °C 30.1 in /  1019.9 hPa SSE 9.2 mph /  14.8 km/h 9.2 mph /  14.8 km/h 38 % 0 in /  0.0 mm
16:04 83.1 °F /  28.4 °C 55.6 °F /  13.1 °C 30.1 in /  1019.9 hPa SSW 8.1 mph /  13.0 km/h 8.1 mph /  13.0 km/h 39 % 0 in /  0.0 mm
16:09 82.8 °F /  28.2 °C 54.7 °F /  12.6 °C 30.1 in /  1019.9 hPa WSW 8.1 mph /  13.0 km/h 8.1 mph /  13.0 km/h 38 % 0 in /  0.0 mm
16:14 82.9 °F /  28.3 °C 54.7 °F /  12.6 °C 30.1 in /  1019.9 hPa SSW 10.4 mph /  16.7 km/h 10.4 mph /  16.7 km/h 38 % 0 in /  0.0 mm
16:19 82.8 °F /  28.2 °C 55.2 °F /  12.9 °C 30.1 in /  1019.9 hPa South 9.2 mph /  14.8 km/h 9.2 mph /  14.8 km/h 39 % 0 in /  0.0 mm
16:24 83.1 °F /  28.4 °C 55.6 °F /  13.1 °C 30.1 in /  1018.8 hPa SW 7.1 mph /  11.4 km/h 7.1 mph /  11.4 km/h 39 % 0 in /  0.0 mm
16:29 83.1 °F /  28.4 °C 55.6 °F /  13.1 °C 30.1 in /  1018.8 hPa WSW 9.2 mph /  14.8 km/h 9.2 mph /  14.8 km/h 39 % 0 in /  0.0 mm
16:34 82.8 °F /  28.2 °C 55.9 °F /  13.3 °C 30.1 in /  1018.8 hPa SSW 9.2 mph /  14.8 km/h 9.2 mph /  14.8 km/h 40 % 0 in /  0.0 mm
16:39 82.8 °F /  28.2 °C 55.9 °F /  13.3 °C 30.1 in /  1018.8 hPa SW 4.6 mph /  7.4 km/h 4.6 mph /  7.4 km/h 40 % 0 in /  0.0 mm
16:44 83.7 °F /  28.7 °C 56.8 °F /  13.8 °C 30.1 in /  1018.8 hPa SW 6.9 mph /  11.1 km/h 6.9 mph /  11.1 km/h 40 % 0 in /  0.0 mm
16:49 82.8 °F /  28.2 °C 56.7 °F /  13.7 °C 30.1 in /  1018.8 hPa South 6.9 mph /  11.1 km/h 6.9 mph /  11.1 km/h 41 % 0 in /  0.0 mm
16:54 82.2 °F /  27.9 °C 56.1 °F /  13.4 °C 30.1 in /  1018.8 hPa SW 11.5 mph /  18.5 km/h 11.5 mph /  18.5 km/h 41 % 0 in /  0.0 mm
16:59 82.2 °F /  27.9 °C 56.1 °F /  13.4 °C 30.1 in /  1018.8 hPa SW 8.5 mph /  13.7 km/h 8.5 mph /  13.7 km/h 41 % 0 in /  0.0 mm
17:04 82.2 °F /  27.9 °C 56.1 °F /  13.4 °C 30.1 in /  1018.8 hPa SW 10.4 mph /  16.7 km/h 10.4 mph /  16.7 km/h 41 % 0 in /  0.0 mm
17:09 82.2 °F /  27.9 °C 56.8 °F /  13.8 °C 30.1 in /  1018.8 hPa WSW 15 mph /  24.1 km/h 15 mph /  24.1 km/h 42 % 0 in /  0.0 mm
17:14 81.9 °F /  27.7 °C 56.5 °F /  13.6 °C 30.1 in /  1018.8 hPa WSW 8.1 mph /  13.0 km/h 8.1 mph /  13.0 km/h 42 % 0 in /  0.0 mm
17:19 81.7 °F /  27.6 °C 56.5 °F /  13.6 °C 30.1 in /  1018.8 hPa South 9.2 mph /  14.8 km/h 9.2 mph /  14.8 km/h 42 % 0 in /  0.0 mm
17:24 81.9 °F /  27.7 °C 56.5 °F /  13.6 °C 30.1 in /  1017.8 hPa SW 10.4 mph /  16.7 km/h 10.4 mph /  16.7 km/h 42 % 0 in /  0.0 mm
17:29 81 °F /  27.2 °C 55.8 °F /  13.2 °C 30.1 in /  1017.8 hPa SSW 12.7 mph /  20.4 km/h 12.7 mph /  20.4 km/h 42 % 0 in /  0.0 mm
17:34 81 °F /  27.2 °C 56.5 °F /  13.6 °C 30.1 in /  1017.8 hPa WSW 11.5 mph /  18.5 km/h 11.5 mph /  18.5 km/h 43 % 0 in /  0.0 mm
17:39 81 °F /  27.2 °C 56.5 °F /  13.6 °C 30.1 in /  1017.8 hPa South 11.5 mph /  18.5 km/h 11.5 mph /  18.5 km/h 43 % 0 in /  0.0 mm
17:44 81 °F /  27.2 °C 56.5 °F /  13.6 °C 30.1 in /  1017.8 hPa SW 13.8 mph /  22.2 km/h 13.8 mph /  22.2 km/h 43 % 0 in /  0.0 mm
17:49 80.4 °F /  26.9 °C 55.9 °F /  13.3 °C 30.1 in /  1017.8 hPa SSW 15 mph /  24.1 km/h 15 mph /  24.1 km/h 43 % 0 in /  0.0 mm
17:54 80.2 °F /  26.8 °C 55.8 °F /  13.2 °C 30.1 in /  1017.8 hPa SW 10.4 mph /  16.7 km/h 10.4 mph /  16.7 km/h 43 % 0 in /  0.0 mm
17:59 80.1 °F /  26.7 °C 55.6 °F /  13.1 °C 30.1 in /  1017.8 hPa SSE 9.2 mph /  14.8 km/h 9.2 mph /  14.8 km/h 43 % 0 in /  0.0 mm
18:04 79.7 °F /  26.5 °C 55.2 °F /  12.9 °C 30.1 in /  1017.8 hPa South 13 mph /  20.9 km/h 13 mph /  20.9 km/h 43 % 0 in /  0.0 mm
18:09 79.9 °F /  26.6 °C 55.4 °F /  13.0 °C 30.1 in /  1017.8 hPa SW 13.8 mph /  22.2 km/h 13.8 mph /  22.2 km/h 43 % 0 in /  0.0 mm
18:14 79.5 °F /  26.4 °C 54.3 °F /  12.4 °C 30.1 in /  1017.8 hPa SW 10.4 mph /  16.7 km/h 10.4 mph /  16.7 km/h 42 % 0 in /  0.0 mm
18:19 79.5 °F /  26.4 °C 54.3 °F /  12.4 °C 30.1 in /  1017.8 hPa SSW 8.1 mph /  13.0 km/h 8.1 mph /  13.0 km/h 42 % 0 in /  0.0 mm
18:24 79 °F /  26.1 °C 54.7 °F /  12.6 °C 30.1 in /  1017.8 hPa WSW 11.5 mph /  18.5 km/h 11.5 mph /  18.5 km/h 43 % 0 in /  0.0 mm
18:29 78.8 °F /  26.0 °C 54.3 °F /  12.4 °C 30.1 in /  1017.8 hPa SW 10.4 mph /  16.7 km/h 10.4 mph /  16.7 km/h 43 % 0 in /  0.0 mm
18:34 78.4 °F /  25.8 °C 54.1 °F /  12.3 °C 30.1 in /  1017.8 hPa South 11.5 mph /  18.5 km/h 11.5 mph /  18.5 km/h 43 % 0 in /  0.0 mm
18:39 78.6 °F /  25.9 °C 54.1 °F /  12.3 °C 30.1 in /  1017.8 hPa West 8.7 mph /  14.0 km/h 8.7 mph /  14.0 km/h 43 % 0 in /  0.0 mm
18:44 78.4 °F /  25.8 °C 54.1 °F /  12.3 °C 30.1 in /  1017.8 hPa SSW 10.4 mph /  16.7 km/h 10.4 mph /  16.7 km/h 43 % 0 in /  0.0 mm
18:49 78.3 °F /  25.7 °C 54.7 °F /  12.6 °C 30.1 in /  1017.8 hPa SW 9.2 mph /  14.8 km/h 9.2 mph /  14.8 km/h 44 % 0 in /  0.0 mm
18:54 77.9 °F /  25.5 °C 54.1 °F /  12.3 °C 30.1 in /  1017.8 hPa WSW 8.1 mph /  13.0 km/h 8.1 mph /  13.0 km/h 44 % 0 in /  0.0 mm
18:59 77.7 °F /  25.4 °C 54.7 °F /  12.6 °C 30.1 in /  1017.8 hPa SW 11.5 mph /  18.5 km/h 11.5 mph /  18.5 km/h 45 % 0 in /  0.0 mm
19:04 77.4 °F /  25.2 °C 55 °F /  12.8 °C 30.1 in /  1017.8 hPa WSW 17.3 mph /  27.8 km/h 17.3 mph /  27.8 km/h 46 % 0 in /  0.0 mm
19:09 76.8 °F /  24.9 °C 55.6 °F /  13.1 °C 30.1 in /  1017.8 hPa SW 11.5 mph /  18.5 km/h 11.5 mph /  18.5 km/h 48 % 0 in /  0.0 mm
19:14 76.3 °F /  24.6 °C 55.8 °F /  13.2 °C 30.1 in /  1017.8 hPa SW 5.9 mph /  9.5 km/h 8.1 mph /  13.0 km/h 49 % 0 in /  0.0 mm
19:19 76.1 °F /  24.5 °C 55.6 °F /  13.1 °C 30.1 in /  1017.8 hPa SW 10.4 mph /  16.7 km/h 10.4 mph /  16.7 km/h 49 % 0 in /  0.0 mm
19:24 76.1 °F /  24.5 °C 56.1 °F /  13.4 °C 30.1 in /  1017.8 hPa WSW 9.2 mph /  14.8 km/h 9.2 mph /  14.8 km/h 50 % 0 in /  0.0 mm
19:29 75.6 °F /  24.2 °C 56.7 °F /  13.7 °C 30.1 in /  1017.8 hPa WSW 12.7 mph /  20.4 km/h 12.7 mph /  20.4 km/h 52 % 0 in /  0.0 mm
19:34 75.2 °F /  24.0 °C 56.8 °F /  13.8 °C 30.1 in /  1017.8 hPa SSE 11.5 mph /  18.5 km/h 11.5 mph /  18.5 km/h 53 % 0 in /  0.0 mm
19:39 75 °F /  23.9 °C 57.2 °F /  14.0 °C 30.1 in /  1017.8 hPa SW 12.7 mph /  20.4 km/h 12.7 mph /  20.4 km/h 54 % 0 in /  0.0 mm
19:44 74.7 °F /  23.7 °C 57.4 °F /  14.1 °C 30.1 in /  1017.8 hPa West 11.5 mph /  18.5 km/h 11.5 mph /  18.5 km/h 55 % 0 in /  0.0 mm
19:49 74.5 °F /  23.6 °C 57.4 °F /  14.1 °C 30.1 in /  1017.8 hPa WSW 13.8 mph /  22.2 km/h 13.8 mph /  22.2 km/h 55 % 0 in /  0.0 mm
19:54 74.3 °F /  23.5 °C 57 °F /  13.9 °C 30.1 in /  1017.8 hPa SW 8.1 mph /  13.0 km/h 8.1 mph /  13.0 km/h 55 % 0 in /  0.0 mm
19:59 73.8 °F /  23.2 °C 58.1 °F /  14.5 °C 30.1 in /  1017.8 hPa SW 12.7 mph /  20.4 km/h 12.7 mph /  20.4 km/h 58 % 0 in /  0.0 mm
20:04 73.6 °F /  23.1 °C 57.9 °F /  14.4 °C 30.1 in /  1017.8 hPa WSW 8.1 mph /  13.0 km/h 8.1 mph /  13.0 km/h 58 % 0 in /  0.0 mm
20:09 73.4 °F /  23.0 °C 57.7 °F /  14.3 °C 30.1 in /  1017.8 hPa SW 6.9 mph /  11.1 km/h 6.9 mph /  11.1 km/h 58 % 0 in /  0.0 mm
20:14 73.2 °F /  22.9 °C 57.9 °F /  14.4 °C 30.1 in /  1017.8 hPa SSW 10.4 mph /  16.7 km/h 10.4 mph /  16.7 km/h 59 % 0 in /  0.0 mm
20:19 73 °F /  22.8 °C 57.9 °F /  14.4 °C 30.1 in /  1017.8 hPa SSW 9.2 mph /  14.8 km/h 9.2 mph /  14.8 km/h 59 % 0 in /  0.0 mm
20:24 72.9 °F /  22.7 °C 57.7 °F /  14.3 °C 30.1 in /  1017.8 hPa SSW 10.4 mph /  16.7 km/h 10.4 mph /  16.7 km/h 59 % 0 in /  0.0 mm
20:29 72.7 °F /  22.6 °C 57.6 °F /  14.2 °C 30.1 in /  1017.8 hPa SW 6 mph /  9.7 km/h 6.2 mph /  10.0 km/h 59 % 0 in /  0.0 mm
20:34 72.5 °F /  22.5 °C 57.7 °F /  14.3 °C 30.1 in /  1017.8 hPa SW 6.9 mph /  11.1 km/h 6.9 mph /  11.1 km/h 60 % 0 in /  0.0 mm
20:39 72.3 °F /  22.4 °C 57.7 °F /  14.3 °C 30.1 in /  1017.8 hPa WSW 9.2 mph /  14.8 km/h 9.2 mph /  14.8 km/h 60 % 0 in /  0.0 mm
20:44 72.3 °F /  22.4 °C 58.1 °F /  14.5 °C 30.1 in /  1017.8 hPa WSW 8.1 mph /  13.0 km/h 8.1 mph /  13.0 km/h 61 % 0 in /  0.0 mm
20:49 72.1 °F /  22.3 °C 57.9 °F /  14.4 °C 30.1 in /  1017.8 hPa WSW 9.2 mph /  14.8 km/h 9.2 mph /  14.8 km/h 61 % 0 in /  0.0 mm
20:54 72 °F /  22.2 °C 57.7 °F /  14.3 °C 30.1 in /  1018.8 hPa SSW 6.9 mph /  11.1 km/h 6.9 mph /  11.1 km/h 61 % 0 in /  0.0 mm
20:59 71.8 °F /  22.1 °C 58.1 °F /  14.5 °C 30.1 in /  1018.8 hPa SW 10.4 mph /  16.7 km/h 10.4 mph /  16.7 km/h 62 % 0 in /  0.0 mm
21:04 71.8 °F /  22.1 °C 58.1 °F /  14.5 °C 30.1 in /  1018.8 hPa SW 9.2 mph /  14.8 km/h 9.2 mph /  14.8 km/h 62 % 0 in /  0.0 mm
21:09 71.6 °F /  22.0 °C 57.9 °F /  14.4 °C 30.1 in /  1018.8 hPa SW 5.8 mph /  9.3 km/h 5.8 mph /  9.3 km/h 62 % 0 in /  0.0 mm
21:14 71.4 °F /  21.9 °C 58.3 °F /  14.6 °C 30.1 in /  1018.8 hPa SW 8.7 mph /  14.0 km/h 8.7 mph /  14.0 km/h 63 % 0 in /  0.0 mm
21:19 71.2 °F /  21.8 °C 58.5 °F /  14.7 °C 30.1 in /  1018.8 hPa SW 5.8 mph /  9.3 km/h 5.8 mph /  9.3 km/h 64 % 0 in /  0.0 mm
21:24 71.2 °F /  21.8 °C 58.8 °F /  14.9 °C 30.1 in /  1018.8 hPa SW 10.4 mph /  16.7 km/h 10.4 mph /  16.7 km/h 65 % 0 in /  0.0 mm
21:29 71.1 °F /  21.7 °C 58.6 °F /  14.8 °C 30.1 in /  1018.8 hPa SW 5.8 mph /  9.3 km/h 5.8 mph /  9.3 km/h 65 % 0 in /  0.0 mm
21:34 71.1 °F /  21.7 °C 59.2 °F /  15.1 °C 30.1 in /  1018.8 hPa SW 3.8 mph /  6.1 km/h 3.8 mph /  6.1 km/h 66 % 0 in /  0.0 mm
21:39 70.9 °F /  21.6 °C 59 °F /  15.0 °C 30.1 in /  1018.8 hPa SW 4.6 mph /  7.4 km/h 4.6 mph /  7.4 km/h 66 % 0 in /  0.0 mm
21:44 70.7 °F /  21.5 °C 58.8 °F /  14.9 °C 30.1 in /  1018.8 hPa SW 4.6 mph /  7.4 km/h 4.6 mph /  7.4 km/h 66 % 0 in /  0.0 mm
21:49 70.7 °F /  21.5 °C 59.2 °F /  15.1 °C 30.1 in /  1018.8 hPa SSW 6.9 mph /  11.1 km/h 6.9 mph /  11.1 km/h 67 % 0 in /  0.0 mm
21:54 70.5 °F /  21.4 °C 59.4 °F /  15.2 °C 30.1 in /  1018.8 hPa SW 6.9 mph /  11.1 km/h 6.9 mph /  11.1 km/h 68 % 0 in /  0.0 mm
21:59 70.5 °F /  21.4 °C 59.9 °F /  15.5 °C 30.1 in /  1018.8 hPa SW 4.6 mph /  7.4 km/h 4.6 mph /  7.4 km/h 69 % 0 in /  0.0 mm
22:04 70.5 °F /  21.4 °C 59.9 °F /  15.5 °C 30.1 in /  1018.8 hPa SSW 5.8 mph /  9.3 km/h 5.8 mph /  9.3 km/h 69 % 0 in /  0.0 mm
22:09 70.3 °F /  21.3 °C 60.1 °F /  15.6 °C 30.1 in /  1018.8 hPa SSW 5.8 mph /  9.3 km/h 5.8 mph /  9.3 km/h 70 % 0 in /  0.0 mm
22:14 70.2 °F /  21.2 °C 60.3 °F /  15.7 °C 30.1 in /  1018.8 hPa SW 4.6 mph /  7.4 km/h 4.6 mph /  7.4 km/h 71 % 0 in /  0.0 mm
22:19 70.3 °F /  21.3 °C 60.4 °F /  15.8 °C 30.1 in /  1018.8 hPa WSW 5.8 mph /  9.3 km/h 5.8 mph /  9.3 km/h 71 % 0 in /  0.0 mm
22:24 70.2 °F /  21.2 °C 60.6 °F /  15.9 °C 30.1 in /  1018.8 hPa WSW 4.6 mph /  7.4 km/h 4.6 mph /  7.4 km/h 72 % 0 in /  0.0 mm
22:29 70.2 °F /  21.2 °C 60.6 °F /  15.9 °C 30.1 in /  1018.8 hPa SW 4.6 mph /  7.4 km/h 4.6 mph /  7.4 km/h 72 % 0 in /  0.0 mm
22:34 70 °F /  21.1 °C 60.4 °F /  15.8 °C 30.1 in /  1018.8 hPa SSW 4.6 mph /  7.4 km/h 4.6 mph /  7.4 km/h 72 % 0 in /  0.0 mm
22:39 70 °F /  21.1 °C 60.4 °F /  15.8 °C 30.1 in /  1018.8 hPa SW 4.6 mph /  7.4 km/h 4.6 mph /  7.4 km/h 72 % 0 in /  0.0 mm
22:44 70 °F /  21.1 °C 61 °F /  16.1 °C 30.1 in /  1018.8 hPa WSW 3.6 mph /  5.8 km/h 3.6 mph /  5.8 km/h 73 % 0 in /  0.0 mm
22:49 70 °F /  21.1 °C 61 °F /  16.1 °C 30.1 in /  1018.8 hPa West 5.8 mph /  9.3 km/h 5.8 mph /  9.3 km/h 73 % 0 in /  0.0 mm
22:54 69.8 °F /  21.0 °C 60.8 °F /  16.0 °C 30.1 in /  1018.8 hPa WSW 3.6 mph /  5.8 km/h 3.6 mph /  5.8 km/h 73 % 0 in /  0.0 mm
22:59 69.8 °F /  21.0 °C 60.8 °F /  16.0 °C 30.1 in /  1018.8 hPa SW 3.5 mph /  5.6 km/h 3.5 mph /  5.6 km/h 73 % 0 in /  0.0 mm
23:04 69.8 °F /  21.0 °C 61.2 °F /  16.2 °C 30.1 in /  1018.8 hPa West 2.3 mph /  3.7 km/h 2.3 mph /  3.7 km/h 74 % 0 in /  0.0 mm
23:09 69.8 °F /  21.0 °C 61.2 °F /  16.2 °C 30.1 in /  1018.8 hPa WSW 4 mph /  6.4 km/h 4 mph /  6.4 km/h 74 % 0 in /  0.0 mm
23:14 69.8 °F /  21.0 °C 61.2 °F /  16.2 °C 30.1 in /  1018.8 hPa WSW 2.3 mph /  3.7 km/h 2.3 mph /  3.7 km/h 74 % 0 in /  0.0 mm
23:19 69.6 °F /  20.9 °C 61 °F /  16.1 °C 30.1 in /  1018.8 hPa WSW 3.3 mph /  5.3 km/h 3.3 mph /  5.3 km/h 74 % 0 in /  0.0 mm
23:24 69.6 °F /  20.9 °C 61 °F /  16.1 °C 30.1 in /  1018.8 hPa West 3.5 mph /  5.6 km/h 3.5 mph /  5.6 km/h 74 % 0 in /  0.0 mm
23:29 69.4 °F /  20.8 °C 61.2 °F /  16.2 °C 30.1 in /  1018.8 hPa SW 2.3 mph /  3.7 km/h 2.3 mph /  3.7 km/h 75 % 0 in /  0.0 mm
23:34 69.4 °F /  20.8 °C 61.2 °F /  16.2 °C 30.1 in /  1018.8 hPa WSW 4.6 mph /  7.4 km/h 4.6 mph /  7.4 km/h 75 % 0 in /  0.0 mm
23:39 69.3 °F /  20.7 °C 61.3 °F /  16.3 °C 30.1 in /  1018.8 hPa SSW 2.4 mph /  3.9 km/h 2.4 mph /  3.9 km/h 76 % 0 in /  0.0 mm
23:44 69.3 °F /  20.7 °C 61.3 °F /  16.3 °C 30.1 in /  1018.8 hPa West 4.6 mph /  7.4 km/h 4.6 mph /  7.4 km/h 76 % 0 in /  0.0 mm
23:49 69.1 °F /  20.6 °C 61.5 °F /  16.4 °C 30.1 in /  1018.8 hPa WSW 3.1 mph /  5.0 km/h 3.1 mph /  5.0 km/h 77 % 0 in /  0.0 mm
23:54 69.1 °F /  20.6 °C 61.2 °F /  16.2 °C 30.1 in /  1017.8 hPa WSW 2.3 mph /  3.7 km/h 2.3 mph /  3.7 km/h 76 % 0 in /  0.0 mm
23:59 69.1 °F /  20.6 °C 61.5 °F /  16.4 °C 30.1 in /  1017.8 hPa WSW 3.5 mph /  5.6 km/h 3.5 mph /  5.6 km/h 77 % 0 in /  0.0 mm
Meteo Sesrovires
Elogis d' Weather Underground - 3.5 mb

Guio original per  Jim McMurry - jmcmurry@mwt.net Adaptat per a la plantilla per  Wim van der Kuil - Leuven-Template.eu

Trobareu la nostra informacio del temps tambe a:

Weather Underground

AWEKAS